sensor_id;sensor_type;location;lat;lon;timestamp;P1;durP1;ratioP1;P2;durP2;ratioP2
1715;SDS011;855;48.824;9.220;2023-12-20T00:00:21;3.23;;;1.30;;
1715;SDS011;855;48.824;9.220;2023-12-20T00:02:48;1.70;;;1.30;;
1715;SDS011;855;48.824;9.220;2023-12-20T00:05:15;2.23;;;1.47;;
1715;SDS011;855;48.824;9.220;2023-12-20T00:07:42;2.93;;;1.63;;
1715;SDS011;855;48.824;9.220;2023-12-20T00:10:09;1.37;;;1.27;;
1715;SDS011;855;48.824;9.220;2023-12-20T00:12:38;1.77;;;1.37;;
1715;SDS011;855;48.824;9.220;2023-12-20T00:15:07;2.00;;;1.23;;
1715;SDS011;855;48.824;9.220;2023-12-20T00:17:34;3.00;;;1.30;;
1715;SDS011;855;48.824;9.220;2023-12-20T00:20:01;0.90;;;0.87;;
1715;SDS011;855;48.824;9.220;2023-12-20T00:22:28;2.30;;;1.40;;
1715;SDS011;855;48.824;9.220;2023-12-20T00:24:55;2.43;;;1.20;;
1715;SDS011;855;48.824;9.220;2023-12-20T00:27:22;2.13;;;1.30;;
1715;SDS011;855;48.824;9.220;2023-12-20T00:29:49;1.00;;;0.90;;
1715;SDS011;855;48.824;9.220;2023-12-20T00:32:17;4.33;;;1.80;;
1715;SDS011;855;48.824;9.220;2023-12-20T00:34:44;1.27;;;0.93;;
1715;SDS011;855;48.824;9.220;2023-12-20T00:37:11;2.60;;;1.00;;
1715;SDS011;855;48.824;9.220;2023-12-20T00:39:38;1.80;;;1.03;;
1715;SDS011;855;48.824;9.220;2023-12-20T00:42:06;1.40;;;1.07;;
1715;SDS011;855;48.824;9.220;2023-12-20T00:44:32;1.80;;;1.20;;
1715;SDS011;855;48.824;9.220;2023-12-20T00:46:59;1.93;;;1.33;;
1715;SDS011;855;48.824;9.220;2023-12-20T00:49:28;1.67;;;1.23;;
1715;SDS011;855;48.824;9.220;2023-12-20T00:51:55;6.80;;;1.30;;
1715;SDS011;855;48.824;9.220;2023-12-20T00:54:22;1.03;;;1.00;;
1715;SDS011;855;48.824;9.220;2023-12-20T00:56:49;3.00;;;1.50;;
1715;SDS011;855;48.824;9.220;2023-12-20T00:59:16;1.30;;;1.20;;
1715;SDS011;855;48.824;9.220;2023-12-20T01:01:43;3.23;;;1.77;;
1715;SDS011;855;48.824;9.220;2023-12-20T01:04:10;1.03;;;1.00;;
1715;SDS011;855;48.824;9.220;2023-12-20T01:06:38;2.50;;;1.43;;
1715;SDS011;855;48.824;9.220;2023-12-20T01:09:05;2.20;;;1.60;;
1715;SDS011;855;48.824;9.220;2023-12-20T01:11:32;2.10;;;1.33;;
1715;SDS011;855;48.824;9.220;2023-12-20T01:13:59;2.27;;;1.40;;
1715;SDS011;855;48.824;9.220;2023-12-20T01:16:26;2.23;;;1.40;;
1715;SDS011;855;48.824;9.220;2023-12-20T01:18:53;1.83;;;1.03;;
1715;SDS011;855;48.824;9.220;2023-12-20T01:21:20;2.67;;;1.43;;
1715;SDS011;855;48.824;9.220;2023-12-20T01:23:48;1.17;;;1.07;;
1715;SDS011;855;48.824;9.220;2023-12-20T01:26:15;1.40;;;1.20;;
1715;SDS011;855;48.824;9.220;2023-12-20T01:28:42;2.77;;;1.60;;
1715;SDS011;855;48.824;9.220;2023-12-20T01:31:09;0.93;;;0.93;;
1715;SDS011;855;48.824;9.220;2023-12-20T01:33:37;1.43;;;1.10;;
1715;SDS011;855;48.824;9.220;2023-12-20T01:36:03;2.47;;;1.73;;
1715;SDS011;855;48.824;9.220;2023-12-20T01:38:31;1.00;;;0.87;;
1715;SDS011;855;48.824;9.220;2023-12-20T01:40:59;3.13;;;1.33;;
1715;SDS011;855;48.824;9.220;2023-12-20T01:43:26;4.13;;;1.27;;
1715;SDS011;855;48.824;9.220;2023-12-20T01:45:53;1.13;;;1.00;;
1715;SDS011;855;48.824;9.220;2023-12-20T01:48:23;1.97;;;1.40;;
1715;SDS011;855;48.824;9.220;2023-12-20T01:50:50;1.60;;;1.50;;
1715;SDS011;855;48.824;9.220;2023-12-20T01:53:18;1.57;;;1.47;;
1715;SDS011;855;48.824;9.220;2023-12-20T01:55:47;2.87;;;2.20;;
1715;SDS011;855;48.824;9.220;2023-12-20T01:58:17;2.40;;;1.60;;
1715;SDS011;855;48.824;9.220;2023-12-20T02:00:45;1.80;;;1.20;;
1715;SDS011;855;48.824;9.220;2023-12-20T02:03:13;3.73;;;1.80;;
1715;SDS011;855;48.824;9.220;2023-12-20T02:05:40;4.70;;;1.50;;
1715;SDS011;855;48.824;9.220;2023-12-20T02:08:07;2.03;;;1.30;;
1715;SDS011;855;48.824;9.220;2023-12-20T02:10:34;1.90;;;1.63;;
1715;SDS011;855;48.824;9.220;2023-12-20T02:13:01;2.20;;;1.40;;
1715;SDS011;855;48.824;9.220;2023-12-20T02:15:30;2.37;;;1.80;;
1715;SDS011;855;48.824;9.220;2023-12-20T02:17:56;2.30;;;1.80;;
1715;SDS011;855;48.824;9.220;2023-12-20T02:20:23;2.03;;;1.30;;
1715;SDS011;855;48.824;9.220;2023-12-20T02:22:52;2.70;;;1.30;;
1715;SDS011;855;48.824;9.220;2023-12-20T02:25:19;2.93;;;1.80;;
1715;SDS011;855;48.824;9.220;2023-12-20T02:27:46;3.03;;;2.13;;
1715;SDS011;855;48.824;9.220;2023-12-20T02:30:13;13.30;;;1.43;;
1715;SDS011;855;48.824;9.220;2023-12-20T02:32:40;3.53;;;1.97;;
1715;SDS011;855;48.824;9.220;2023-12-20T02:35:07;1.87;;;1.60;;
1715;SDS011;855;48.824;9.220;2023-12-20T02:37:34;2.30;;;1.83;;
1715;SDS011;855;48.824;9.220;2023-12-20T02:40:03;3.63;;;2.07;;
1715;SDS011;855;48.824;9.220;2023-12-20T02:42:30;1.53;;;1.23;;
1715;SDS011;855;48.824;9.220;2023-12-20T02:44:57;3.17;;;2.00;;
1715;SDS011;855;48.824;9.220;2023-12-20T02:47:24;5.03;;;2.03;;
1715;SDS011;855;48.824;9.220;2023-12-20T02:49:51;1.80;;;1.60;;
1715;SDS011;855;48.824;9.220;2023-12-20T02:52:19;1.87;;;1.50;;
1715;SDS011;855;48.824;9.220;2023-12-20T02:54:45;1.30;;;1.20;;
1715;SDS011;855;48.824;9.220;2023-12-20T02:57:14;10.33;;;1.93;;
1715;SDS011;855;48.824;9.220;2023-12-20T02:59:40;2.70;;;1.57;;
1715;SDS011;855;48.824;9.220;2023-12-20T03:02:07;2.90;;;1.53;;
1715;SDS011;855;48.824;9.220;2023-12-20T03:04:34;1.73;;;1.67;;
1715;SDS011;855;48.824;9.220;2023-12-20T03:07:01;5.97;;;2.13;;
1715;SDS011;855;48.824;9.220;2023-12-20T03:09:28;2.17;;;1.80;;
1715;SDS011;855;48.824;9.220;2023-12-20T03:11:55;2.93;;;1.50;;
1715;SDS011;855;48.824;9.220;2023-12-20T03:14:23;1.90;;;1.70;;
1715;SDS011;855;48.824;9.220;2023-12-20T03:16:50;5.27;;;2.20;;
1715;SDS011;855;48.824;9.220;2023-12-20T03:19:17;4.27;;;1.93;;
1715;SDS011;855;48.824;9.220;2023-12-20T03:21:45;5.17;;;2.17;;
1715;SDS011;855;48.824;9.220;2023-12-20T03:24:12;2.40;;;1.80;;
1715;SDS011;855;48.824;9.220;2023-12-20T03:26:38;3.27;;;2.20;;
1715;SDS011;855;48.824;9.220;2023-12-20T03:29:05;3.27;;;1.93;;
1715;SDS011;855;48.824;9.220;2023-12-20T03:31:34;1.43;;;1.13;;
1715;SDS011;855;48.824;9.220;2023-12-20T03:34:01;0.97;;;0.87;;
1715;SDS011;855;48.824;9.220;2023-12-20T03:36:27;0.63;;;0.53;;
1715;SDS011;855;48.824;9.220;2023-12-20T03:38:55;0.87;;;0.77;;
1715;SDS011;855;48.824;9.220;2023-12-20T03:41:22;0.60;;;0.50;;
1715;SDS011;855;48.824;9.220;2023-12-20T03:43:49;0.60;;;0.50;;
1715;SDS011;855;48.824;9.220;2023-12-20T03:46:16;0.60;;;0.50;;
1715;SDS011;855;48.824;9.220;2023-12-20T03:48:44;0.67;;;0.57;;
1715;SDS011;855;48.824;9.220;2023-12-20T03:51:11;0.50;;;0.40;;
1715;SDS011;855;48.824;9.220;2023-12-20T03:53:38;0.43;;;0.37;;
1715;SDS011;855;48.824;9.220;2023-12-20T03:56:06;0.53;;;0.47;;
1715;SDS011;855;48.824;9.220;2023-12-20T03:58:33;1.40;;;0.40;;
1715;SDS011;855;48.824;9.220;2023-12-20T04:01:00;0.80;;;0.67;;
1715;SDS011;855;48.824;9.220;2023-12-20T04:03:27;0.47;;;0.40;;
1715;SDS011;855;48.824;9.220;2023-12-20T04:05:55;0.60;;;0.50;;
1715;SDS011;855;48.824;9.220;2023-12-20T04:08:22;0.50;;;0.40;;
1715;SDS011;855;48.824;9.220;2023-12-20T04:10:49;0.53;;;0.43;;
1715;SDS011;855;48.824;9.220;2023-12-20T04:13:16;0.60;;;0.50;;
1715;SDS011;855;48.824;9.220;2023-12-20T04:15:43;0.60;;;0.50;;
1715;SDS011;855;48.824;9.220;2023-12-20T04:18:10;0.70;;;0.60;;
1715;SDS011;855;48.824;9.220;2023-12-20T04:20:37;0.70;;;0.60;;
1715;SDS011;855;48.824;9.220;2023-12-20T04:23:05;0.60;;;0.50;;
1715;SDS011;855;48.824;9.220;2023-12-20T04:25:32;0.43;;;0.40;;
1715;SDS011;855;48.824;9.220;2023-12-20T04:27:59;0.40;;;0.40;;
1715;SDS011;855;48.824;9.220;2023-12-20T04:30:26;0.50;;;0.40;;
1715;SDS011;855;48.824;9.220;2023-12-20T04:32:53;0.87;;;0.60;;
1715;SDS011;855;48.824;9.220;2023-12-20T04:35:20;4.20;;;0.43;;
1715;SDS011;855;48.824;9.220;2023-12-20T04:37:47;0.67;;;0.50;;
1715;SDS011;855;48.824;9.220;2023-12-20T04:40:16;0.50;;;0.40;;
1715;SDS011;855;48.824;9.220;2023-12-20T04:42:43;0.73;;;0.60;;
1715;SDS011;855;48.824;9.220;2023-12-20T04:45:10;0.50;;;0.40;;
1715;SDS011;855;48.824;9.220;2023-12-20T04:47:41;0.50;;;0.40;;
1715;SDS011;855;48.824;9.220;2023-12-20T04:50:08;0.93;;;0.60;;
1715;SDS011;855;48.824;9.220;2023-12-20T04:52:36;1.13;;;0.60;;
1715;SDS011;855;48.824;9.220;2023-12-20T04:55:03;0.57;;;0.47;;
1715;SDS011;855;48.824;9.220;2023-12-20T04:57:32;0.40;;;0.40;;
1715;SDS011;855;48.824;9.220;2023-12-20T04:59:58;1.27;;;0.60;;
1715;SDS011;855;48.824;9.220;2023-12-20T05:02:25;0.80;;;0.47;;
1715;SDS011;855;48.824;9.220;2023-12-20T05:04:52;0.30;;;0.30;;
1715;SDS011;855;48.824;9.220;2023-12-20T05:07:19;0.57;;;0.50;;
1715;SDS011;855;48.824;9.220;2023-12-20T05:09:46;0.57;;;0.47;;
1715;SDS011;855;48.824;9.220;2023-12-20T05:12:13;0.57;;;0.57;;
1715;SDS011;855;48.824;9.220;2023-12-20T05:14:42;1.13;;;0.70;;
1715;SDS011;855;48.824;9.220;2023-12-20T05:17:09;0.53;;;0.40;;
1715;SDS011;855;48.824;9.220;2023-12-20T05:19:35;1.20;;;0.60;;
1715;SDS011;855;48.824;9.220;2023-12-20T05:22:03;2.67;;;0.83;;
1715;SDS011;855;48.824;9.220;2023-12-20T05:24:30;0.80;;;0.40;;
1715;SDS011;855;48.824;9.220;2023-12-20T05:26:57;0.50;;;0.40;;
1715;SDS011;855;48.824;9.220;2023-12-20T05:29:24;0.47;;;0.43;;
1715;SDS011;855;48.824;9.220;2023-12-20T05:31:52;0.40;;;0.40;;
1715;SDS011;855;48.824;9.220;2023-12-20T05:34:18;0.60;;;0.50;;
1715;SDS011;855;48.824;9.220;2023-12-20T05:36:45;0.83;;;0.80;;
1715;SDS011;855;48.824;9.220;2023-12-20T05:39:12;0.70;;;0.60;;
1715;SDS011;855;48.824;9.220;2023-12-20T05:41:39;0.70;;;0.60;;
1715;SDS011;855;48.824;9.220;2023-12-20T05:44:06;2.37;;;2.17;;
1715;SDS011;855;48.824;9.220;2023-12-20T05:46:33;1.03;;;1.00;;
1715;SDS011;855;48.824;9.220;2023-12-20T05:49:02;4.93;;;0.80;;
1715;SDS011;855;48.824;9.220;2023-12-20T05:51:29;0.40;;;0.40;;
1715;SDS011;855;48.824;9.220;2023-12-20T05:53:56;0.63;;;0.50;;
1715;SDS011;855;48.824;9.220;2023-12-20T05:56:23;0.80;;;0.60;;
1715;SDS011;855;48.824;9.220;2023-12-20T05:58:50;3.40;;;1.50;;
1715;SDS011;855;48.824;9.220;2023-12-20T06:01:17;0.93;;;0.83;;
1715;SDS011;855;48.824;9.220;2023-12-20T06:03:44;2.93;;;2.40;;
1715;SDS011;855;48.824;9.220;2023-12-20T06:06:13;4.00;;;2.00;;
1715;SDS011;855;48.824;9.220;2023-12-20T06:08:40;2.00;;;1.00;;
1715;SDS011;855;48.824;9.220;2023-12-20T06:11:08;1.83;;;1.33;;
1715;SDS011;855;48.824;9.220;2023-12-20T06:13:35;2.80;;;2.43;;
1715;SDS011;855;48.824;9.220;2023-12-20T06:16:05;1.63;;;1.50;;
1715;SDS011;855;48.824;9.220;2023-12-20T06:18:32;1.00;;;0.73;;
1715;SDS011;855;48.824;9.220;2023-12-20T06:20:59;2.57;;;1.40;;
1715;SDS011;855;48.824;9.220;2023-12-20T06:23:28;3.23;;;1.27;;
1715;SDS011;855;48.824;9.220;2023-12-20T06:25:55;0.90;;;0.90;;
1715;SDS011;855;48.824;9.220;2023-12-20T06:28:22;0.90;;;0.70;;
1715;SDS011;855;48.824;9.220;2023-12-20T06:30:49;0.83;;;0.60;;
1715;SDS011;855;48.824;9.220;2023-12-20T06:33:17;1.27;;;0.60;;
1715;SDS011;855;48.824;9.220;2023-12-20T06:35:46;1.27;;;0.60;;
1715;SDS011;855;48.824;9.220;2023-12-20T06:38:13;2.57;;;1.00;;
1715;SDS011;855;48.824;9.220;2023-12-20T06:40:41;1.00;;;0.80;;
1715;SDS011;855;48.824;9.220;2023-12-20T06:43:08;0.60;;;0.50;;
1715;SDS011;855;48.824;9.220;2023-12-20T06:45:35;1.73;;;0.93;;
1715;SDS011;855;48.824;9.220;2023-12-20T06:48:03;0.90;;;0.80;;
1715;SDS011;855;48.824;9.220;2023-12-20T06:50:30;1.67;;;0.90;;
1715;SDS011;855;48.824;9.220;2023-12-20T06:52:57;1.00;;;0.90;;
1715;SDS011;855;48.824;9.220;2023-12-20T06:55:24;1.03;;;0.87;;
1715;SDS011;855;48.824;9.220;2023-12-20T06:57:53;1.33;;;1.07;;
1715;SDS011;855;48.824;9.220;2023-12-20T07:00:20;1.67;;;0.87;;
1715;SDS011;855;48.824;9.220;2023-12-20T07:02:47;1.43;;;0.83;;
1715;SDS011;855;48.824;9.220;2023-12-20T07:05:16;0.83;;;0.80;;
1715;SDS011;855;48.824;9.220;2023-12-20T07:07:44;1.03;;;0.93;;
1715;SDS011;855;48.824;9.220;2023-12-20T07:10:12;1.53;;;0.80;;
1715;SDS011;855;48.824;9.220;2023-12-20T07:12:39;1.17;;;0.80;;
1715;SDS011;855;48.824;9.220;2023-12-20T07:15:07;1.03;;;0.97;;
1715;SDS011;855;48.824;9.220;2023-12-20T07:17:34;0.90;;;0.90;;
1715;SDS011;855;48.824;9.220;2023-12-20T07:20:02;3.13;;;1.50;;
1715;SDS011;855;48.824;9.220;2023-12-20T07:22:29;1.67;;;1.60;;
1715;SDS011;855;48.824;9.220;2023-12-20T07:24:57;2.97;;;1.57;;
1715;SDS011;855;48.824;9.220;2023-12-20T07:27:24;2.83;;;1.93;;
1715;SDS011;855;48.824;9.220;2023-12-20T07:29:51;2.53;;;1.73;;
1715;SDS011;855;48.824;9.220;2023-12-20T07:32:19;3.50;;;2.20;;
1715;SDS011;855;48.824;9.220;2023-12-20T07:34:46;4.33;;;1.97;;
1715;SDS011;855;48.824;9.220;2023-12-20T07:37:13;2.50;;;1.60;;
1715;SDS011;855;48.824;9.220;2023-12-20T07:39:40;2.33;;;1.53;;
1715;SDS011;855;48.824;9.220;2023-12-20T07:42:07;3.10;;;1.83;;
1715;SDS011;855;48.824;9.220;2023-12-20T07:44:34;3.40;;;2.27;;
1715;SDS011;855;48.824;9.220;2023-12-20T07:47:01;3.10;;;2.20;;
1715;SDS011;855;48.824;9.220;2023-12-20T07:49:30;2.67;;;2.20;;
1715;SDS011;855;48.824;9.220;2023-12-20T07:51:57;5.10;;;3.10;;
1715;SDS011;855;48.824;9.220;2023-12-20T07:54:23;2.23;;;1.83;;
1715;SDS011;855;48.824;9.220;2023-12-20T07:56:50;2.13;;;1.70;;
1715;SDS011;855;48.824;9.220;2023-12-20T07:59:17;2.83;;;2.30;;
1715;SDS011;855;48.824;9.220;2023-12-20T08:01:45;3.90;;;2.00;;
1715;SDS011;855;48.824;9.220;2023-12-20T08:04:12;1.60;;;1.57;;
1715;SDS011;855;48.824;9.220;2023-12-20T08:06:40;4.40;;;2.50;;
1715;SDS011;855;48.824;9.220;2023-12-20T08:09:07;1.93;;;1.60;;
1715;SDS011;855;48.824;9.220;2023-12-20T08:11:35;4.07;;;2.77;;
1715;SDS011;855;48.824;9.220;2023-12-20T08:14:02;4.00;;;2.60;;
1715;SDS011;855;48.824;9.220;2023-12-20T08:16:29;4.33;;;2.27;;
1715;SDS011;855;48.824;9.220;2023-12-20T08:18:56;3.70;;;3.07;;
1715;SDS011;855;48.824;9.220;2023-12-20T08:21:23;3.70;;;2.40;;
1715;SDS011;855;48.824;9.220;2023-12-20T08:23:51;3.43;;;2.10;;
1715;SDS011;855;48.824;9.220;2023-12-20T08:26:18;3.00;;;2.27;;
1715;SDS011;855;48.824;9.220;2023-12-20T08:28:47;2.60;;;1.97;;
1715;SDS011;855;48.824;9.220;2023-12-20T08:31:14;3.90;;;2.53;;
1715;SDS011;855;48.824;9.220;2023-12-20T08:33:43;5.63;;;2.80;;
1715;SDS011;855;48.824;9.220;2023-12-20T08:36:10;7.37;;;2.67;;
1715;SDS011;855;48.824;9.220;2023-12-20T08:38:37;8.37;;;3.20;;
1715;SDS011;855;48.824;9.220;2023-12-20T08:41:06;7.97;;;2.67;;
1715;SDS011;855;48.824;9.220;2023-12-20T08:43:41;13.60;;;3.23;;
1715;SDS011;855;48.824;9.220;2023-12-20T08:46:08;3.47;;;2.10;;
1715;SDS011;855;48.824;9.220;2023-12-20T08:48:35;4.03;;;2.50;;
1715;SDS011;855;48.824;9.220;2023-12-20T08:51:02;4.40;;;2.63;;
1715;SDS011;855;48.824;9.220;2023-12-20T08:53:29;3.20;;;2.27;;
1715;SDS011;855;48.824;9.220;2023-12-20T08:55:56;5.90;;;2.90;;
1715;SDS011;855;48.824;9.220;2023-12-20T08:58:26;3.23;;;2.43;;
1715;SDS011;855;48.824;9.220;2023-12-20T09:00:54;2.37;;;2.03;;
1715;SDS011;855;48.824;9.220;2023-12-20T09:03:22;4.27;;;2.70;;
1715;SDS011;855;48.824;9.220;2023-12-20T09:05:49;17.40;;;6.00;;
1715;SDS011;855;48.824;9.220;2023-12-20T09:08:16;9.63;;;4.00;;
1715;SDS011;855;48.824;9.220;2023-12-20T09:10:43;8.40;;;2.80;;
1715;SDS011;855;48.824;9.220;2023-12-20T09:13:10;2.43;;;1.93;;
1715;SDS011;855;48.824;9.220;2023-12-20T09:15:37;2.60;;;2.00;;
1715;SDS011;855;48.824;9.220;2023-12-20T09:18:05;3.47;;;2.20;;
1715;SDS011;855;48.824;9.220;2023-12-20T09:20:32;4.77;;;2.10;;
1715;SDS011;855;48.824;9.220;2023-12-20T09:23:00;3.60;;;2.30;;
1715;SDS011;855;48.824;9.220;2023-12-20T09:25:26;2.37;;;1.93;;
1715;SDS011;855;48.824;9.220;2023-12-20T09:27:54;5.80;;;2.47;;
1715;SDS011;855;48.824;9.220;2023-12-20T09:30:21;2.23;;;1.60;;
1715;SDS011;855;48.824;9.220;2023-12-20T09:32:48;4.17;;;2.57;;
1715;SDS011;855;48.824;9.220;2023-12-20T09:35:17;3.43;;;1.60;;
1715;SDS011;855;48.824;9.220;2023-12-20T09:37:44;3.67;;;1.67;;
1715;SDS011;855;48.824;9.220;2023-12-20T09:40:12;4.17;;;1.90;;
1715;SDS011;855;48.824;9.220;2023-12-20T09:42:41;5.50;;;2.20;;
1715;SDS011;855;48.824;9.220;2023-12-20T09:45:20;2.20;;;1.23;;
1715;SDS011;855;48.824;9.220;2023-12-20T09:47:48;3.87;;;2.00;;
1715;SDS011;855;48.824;9.220;2023-12-20T09:50:17;2.93;;;1.63;;
1715;SDS011;855;48.824;9.220;2023-12-20T09:52:45;3.43;;;1.80;;
1715;SDS011;855;48.824;9.220;2023-12-20T09:55:15;1.30;;;1.23;;
1715;SDS011;855;48.824;9.220;2023-12-20T09:57:43;4.13;;;1.90;;
1715;SDS011;855;48.824;9.220;2023-12-20T10:00:11;3.10;;;1.10;;
1715;SDS011;855;48.824;9.220;2023-12-20T10:02:40;2.53;;;1.43;;
1715;SDS011;855;48.824;9.220;2023-12-20T10:05:14;12.37;;;1.73;;
1715;SDS011;855;48.824;9.220;2023-12-20T10:07:45;1.80;;;1.60;;
1715;SDS011;855;48.824;9.220;2023-12-20T10:10:12;5.37;;;1.67;;
1715;SDS011;855;48.824;9.220;2023-12-20T10:12:40;1.80;;;1.40;;
1715;SDS011;855;48.824;9.220;2023-12-20T10:15:08;2.93;;;1.73;;
1715;SDS011;855;48.824;9.220;2023-12-20T10:17:36;5.60;;;1.33;;
1715;SDS011;855;48.824;9.220;2023-12-20T10:20:04;2.60;;;1.60;;
1715;SDS011;855;48.824;9.220;2023-12-20T10:22:35;3.53;;;1.60;;
1715;SDS011;855;48.824;9.220;2023-12-20T10:25:05;18.23;;;1.83;;
1715;SDS011;855;48.824;9.220;2023-12-20T10:27:32;7.13;;;1.77;;
1715;SDS011;855;48.824;9.220;2023-12-20T10:30:00;1.80;;;1.10;;
1715;SDS011;855;48.824;9.220;2023-12-20T10:32:27;11.87;;;2.13;;
1715;SDS011;855;48.824;9.220;2023-12-20T10:34:54;2.50;;;1.20;;
1715;SDS011;855;48.824;9.220;2023-12-20T10:37:21;3.17;;;1.93;;
1715;SDS011;855;48.824;9.220;2023-12-20T10:39:49;3.13;;;1.63;;
1715;SDS011;855;48.824;9.220;2023-12-20T10:42:19;3.20;;;1.67;;
1715;SDS011;855;48.824;9.220;2023-12-20T10:44:47;2.67;;;1.90;;
1715;SDS011;855;48.824;9.220;2023-12-20T10:47:15;3.73;;;1.20;;
1715;SDS011;855;48.824;9.220;2023-12-20T10:49:43;2.13;;;1.07;;
1715;SDS011;855;48.824;9.220;2023-12-20T10:52:11;2.60;;;1.53;;
1715;SDS011;855;48.824;9.220;2023-12-20T10:54:38;1.90;;;1.30;;
1715;SDS011;855;48.824;9.220;2023-12-20T10:57:06;7.43;;;1.53;;
1715;SDS011;855;48.824;9.220;2023-12-20T10:59:36;8.53;;;2.13;;
1715;SDS011;855;48.824;9.220;2023-12-20T11:02:04;4.17;;;2.20;;
1715;SDS011;855;48.824;9.220;2023-12-20T11:04:35;3.83;;;2.03;;
1715;SDS011;855;48.824;9.220;2023-12-20T11:07:15;11.80;;;2.10;;
1715;SDS011;855;48.824;9.220;2023-12-20T11:09:49;2.07;;;1.23;;
1715;SDS011;855;48.824;9.220;2023-12-20T11:12:25;1.93;;;1.50;;
1715;SDS011;855;48.824;9.220;2023-12-20T11:15:02;1.80;;;1.17;;
1715;SDS011;855;48.824;9.220;2023-12-20T11:17:31;14.23;;;1.90;;
1715;SDS011;855;48.824;9.220;2023-12-20T11:20:05;2.70;;;1.57;;
1715;SDS011;855;48.824;9.220;2023-12-20T11:22:38;5.77;;;1.47;;
1715;SDS011;855;48.824;9.220;2023-12-20T11:25:17;1.37;;;1.30;;
1715;SDS011;855;48.824;9.220;2023-12-20T11:27:44;7.07;;;1.93;;
1715;SDS011;855;48.824;9.220;2023-12-20T11:30:42;6.33;;;1.47;;
1715;SDS011;855;48.824;9.220;2023-12-20T11:33:12;4.17;;;1.30;;
1715;SDS011;855;48.824;9.220;2023-12-20T11:35:39;5.63;;;1.53;;
1715;SDS011;855;48.824;9.220;2023-12-20T11:38:07;6.47;;;1.67;;
1715;SDS011;855;48.824;9.220;2023-12-20T11:40:34;1.50;;;1.10;;
1715;SDS011;855;48.824;9.220;2023-12-20T11:43:02;15.30;;;2.27;;
1715;SDS011;855;48.824;9.220;2023-12-20T11:45:30;6.40;;;1.13;;
1715;SDS011;855;48.824;9.220;2023-12-20T11:48:00;4.10;;;1.53;;
1715;SDS011;855;48.824;9.220;2023-12-20T11:50:28;4.73;;;1.37;;
1715;SDS011;855;48.824;9.220;2023-12-20T11:52:56;6.23;;;1.50;;
1715;SDS011;855;48.824;9.220;2023-12-20T11:55:23;3.53;;;1.67;;
1715;SDS011;855;48.824;9.220;2023-12-20T11:57:50;3.13;;;2.00;;
1715;SDS011;855;48.824;9.220;2023-12-20T12:00:18;1.27;;;1.17;;
1715;SDS011;855;48.824;9.220;2023-12-20T12:02:54;3.43;;;1.03;;
1715;SDS011;855;48.824;9.220;2023-12-20T12:05:23;5.17;;;1.60;;
1715;SDS011;855;48.824;9.220;2023-12-20T12:07:50;14.10;;;2.13;;
1715;SDS011;855;48.824;9.220;2023-12-20T12:10:17;9.20;;;1.47;;
1715;SDS011;855;48.824;9.220;2023-12-20T12:12:44;1.23;;;1.07;;
1715;SDS011;855;48.824;9.220;2023-12-20T12:15:11;5.90;;;1.60;;
1715;SDS011;855;48.824;9.220;2023-12-20T12:17:38;3.53;;;2.00;;
1715;SDS011;855;48.824;9.220;2023-12-20T12:20:05;5.33;;;1.60;;
1715;SDS011;855;48.824;9.220;2023-12-20T12:22:36;5.20;;;1.43;;
1715;SDS011;855;48.824;9.220;2023-12-20T12:25:09;3.60;;;1.50;;
1715;SDS011;855;48.824;9.220;2023-12-20T12:27:37;3.13;;;1.53;;
1715;SDS011;855;48.824;9.220;2023-12-20T12:30:06;5.67;;;1.23;;
1715;SDS011;855;48.824;9.220;2023-12-20T12:32:34;3.13;;;1.40;;
1715;SDS011;855;48.824;9.220;2023-12-20T12:35:02;4.00;;;1.40;;
1715;SDS011;855;48.824;9.220;2023-12-20T12:37:31;3.97;;;2.10;;
1715;SDS011;855;48.824;9.220;2023-12-20T12:40:01;2.17;;;1.60;;
1715;SDS011;855;48.824;9.220;2023-12-20T12:42:30;10.13;;;1.93;;
1715;SDS011;855;48.824;9.220;2023-12-20T12:44:57;2.70;;;1.27;;
1715;SDS011;855;48.824;9.220;2023-12-20T12:47:24;2.30;;;1.33;;
1715;SDS011;855;48.824;9.220;2023-12-20T12:49:51;6.57;;;1.50;;
1715;SDS011;855;48.824;9.220;2023-12-20T12:52:19;6.83;;;2.00;;
1715;SDS011;855;48.824;9.220;2023-12-20T12:54:46;9.77;;;1.40;;
1715;SDS011;855;48.824;9.220;2023-12-20T12:57:15;4.00;;;1.60;;
1715;SDS011;855;48.824;9.220;2023-12-20T12:59:42;1.27;;;1.10;;
1715;SDS011;855;48.824;9.220;2023-12-20T13:02:10;5.13;;;1.10;;
1715;SDS011;855;48.824;9.220;2023-12-20T13:04:38;1.30;;;1.10;;
1715;SDS011;855;48.824;9.220;2023-12-20T13:07:05;5.60;;;1.00;;
1715;SDS011;855;48.824;9.220;2023-12-20T13:09:32;6.50;;;1.20;;
1715;SDS011;855;48.824;9.220;2023-12-20T13:11:59;8.27;;;1.53;;
1715;SDS011;855;48.824;9.220;2023-12-20T13:14:30;8.13;;;1.30;;
1715;SDS011;855;48.824;9.220;2023-12-20T13:16:58;2.60;;;1.10;;
1715;SDS011;855;48.824;9.220;2023-12-20T13:19:24;3.73;;;1.93;;
1715;SDS011;855;48.824;9.220;2023-12-20T13:21:51;2.10;;;1.13;;
1715;SDS011;855;48.824;9.220;2023-12-20T13:24:18;1.43;;;1.17;;
1715;SDS011;855;48.824;9.220;2023-12-20T13:26:45;3.67;;;1.50;;
1715;SDS011;855;48.824;9.220;2023-12-20T13:29:12;1.90;;;1.23;;
1715;SDS011;855;48.824;9.220;2023-12-20T13:31:40;2.00;;;1.47;;
1715;SDS011;855;48.824;9.220;2023-12-20T13:34:07;1.90;;;0.90;;
1715;SDS011;855;48.824;9.220;2023-12-20T13:36:34;5.50;;;1.30;;
1715;SDS011;855;48.824;9.220;2023-12-20T13:39:02;6.17;;;1.73;;
1715;SDS011;855;48.824;9.220;2023-12-20T13:41:30;7.43;;;1.33;;
1715;SDS011;855;48.824;9.220;2023-12-20T13:43:57;1.33;;;1.33;;
1715;SDS011;855;48.824;9.220;2023-12-20T13:46:23;3.23;;;0.90;;
1715;SDS011;855;48.824;9.220;2023-12-20T13:48:52;6.13;;;1.50;;
1715;SDS011;855;48.824;9.220;2023-12-20T13:51:18;7.83;;;1.57;;
1715;SDS011;855;48.824;9.220;2023-12-20T13:53:46;6.33;;;1.00;;
1715;SDS011;855;48.824;9.220;2023-12-20T13:56:13;7.10;;;1.00;;
1715;SDS011;855;48.824;9.220;2023-12-20T13:58:41;4.37;;;1.40;;
1715;SDS011;855;48.824;9.220;2023-12-20T14:01:08;6.20;;;1.50;;
1715;SDS011;855;48.824;9.220;2023-12-20T14:03:36;5.33;;;1.20;;
1715;SDS011;855;48.824;9.220;2023-12-20T14:06:05;1.20;;;1.10;;
1715;SDS011;855;48.824;9.220;2023-12-20T14:08:32;2.17;;;1.20;;
1715;SDS011;855;48.824;9.220;2023-12-20T14:10:58;2.00;;;1.13;;
1715;SDS011;855;48.824;9.220;2023-12-20T14:13:26;7.90;;;1.10;;
1715;SDS011;855;48.824;9.220;2023-12-20T14:15:53;3.83;;;1.20;;
1715;SDS011;855;48.824;9.220;2023-12-20T14:18:20;13.50;;;1.63;;
1715;SDS011;855;48.824;9.220;2023-12-20T14:20:47;13.53;;;1.47;;
1715;SDS011;855;48.824;9.220;2023-12-20T14:23:17;6.33;;;1.10;;
1715;SDS011;855;48.824;9.220;2023-12-20T14:25:43;4.30;;;1.17;;
1715;SDS011;855;48.824;9.220;2023-12-20T14:28:10;2.40;;;1.63;;
1715;SDS011;855;48.824;9.220;2023-12-20T14:30:39;2.27;;;1.13;;
1715;SDS011;855;48.824;9.220;2023-12-20T14:33:06;2.93;;;1.27;;
1715;SDS011;855;48.824;9.220;2023-12-20T14:35:33;1.60;;;1.23;;
1715;SDS011;855;48.824;9.220;2023-12-20T14:38:00;8.50;;;2.03;;
1715;SDS011;855;48.824;9.220;2023-12-20T14:40:29;4.47;;;0.80;;
1715;SDS011;855;48.824;9.220;2023-12-20T14:42:56;7.47;;;2.33;;
1715;SDS011;855;48.824;9.220;2023-12-20T14:45:23;1.20;;;1.07;;
1715;SDS011;855;48.824;9.220;2023-12-20T14:47:50;1.60;;;1.53;;
1715;SDS011;855;48.824;9.220;2023-12-20T14:50:17;6.60;;;1.30;;
1715;SDS011;855;48.824;9.220;2023-12-20T14:52:44;4.20;;;1.10;;
1715;SDS011;855;48.824;9.220;2023-12-20T14:55:11;1.63;;;1.20;;
1715;SDS011;855;48.824;9.220;2023-12-20T14:57:39;8.57;;;1.50;;
1715;SDS011;855;48.824;9.220;2023-12-20T15:00:06;3.53;;;0.90;;
1715;SDS011;855;48.824;9.220;2023-12-20T15:02:34;3.03;;;1.47;;
1715;SDS011;855;48.824;9.220;2023-12-20T15:05:01;2.53;;;1.67;;
1715;SDS011;855;48.824;9.220;2023-12-20T15:07:27;2.37;;;1.47;;
1715;SDS011;855;48.824;9.220;2023-12-20T15:09:54;2.53;;;1.10;;
1715;SDS011;855;48.824;9.220;2023-12-20T15:12:21;7.83;;;1.40;;
1715;SDS011;855;48.824;9.220;2023-12-20T15:14:50;6.30;;;1.83;;
1715;SDS011;855;48.824;9.220;2023-12-20T15:17:17;15.30;;;2.00;;
1715;SDS011;855;48.824;9.220;2023-12-20T15:19:44;11.87;;;1.77;;
1715;SDS011;855;48.824;9.220;2023-12-20T15:22:11;1.10;;;0.90;;
1715;SDS011;855;48.824;9.220;2023-12-20T15:24:38;9.50;;;3.07;;
1715;SDS011;855;48.824;9.220;2023-12-20T15:27:07;3.60;;;1.27;;
1715;SDS011;855;48.824;9.220;2023-12-20T15:29:34;2.47;;;1.93;;
1715;SDS011;855;48.824;9.220;2023-12-20T15:32:02;3.33;;;1.80;;